Time;durP1;ratioP1;P1;durP2;ratioP2;P2;SDS_P1;SDS_P2;PMS_P1;PMS_P2;Temp;Humidity;BMP_temperature;BMP_pressure;BME280_temperature;BME280_humidity;BME280_pressure;Samples;Min_cycle;Max_cycle;Signal;HPM_P1;HPM_P2
2021/03/25 00:01:44;;;;;;;69.27;35.57;;;;;;;6.13;83.18;102079.22;5114186;28;20550;-75
2021/03/25 00:04:10;;;;;;;70.10;34.10;;;;;;;6.11;83.01;102077.34;5114425;28;20031;-75
2021/03/25 00:06:38;;;;;;;71.57;34.78;;;;;;;6.09;83.04;102082.38;5114516;28;20028;-76
2021/03/25 00:09:09;;;;;;;66.10;33.67;;;;;;;6.09;83.49;102084.91;5114471;28;20035;-75
2021/03/25 00:11:35;;;;;;;66.47;32.43;;;;;;;6.09;83.38;102077.28;5114051;28;20023;-75
2021/03/25 00:14:00;;;;;;;71.80;33.33;;;;;;;6.10;83.96;102084.13;5095827;28;20019;-74
2021/03/25 00:16:25;;;;;;;77.32;34.42;;;;;;;6.09;83.52;102078.94;5114442;28;20030;-75
2021/03/25 00:18:51;;;;;;;69.05;34.92;;;;;;;6.10;83.71;102079.03;5114256;28;20095;-75
2021/03/25 00:21:16;;;;;;;75.80;35.47;;;;;;;6.08;83.62;102079.72;5113850;28;20032;-75
2021/03/25 00:23:42;;;;;;;73.63;35.80;;;;;;;6.06;84.81;102077.09;5095716;28;20119;-76
2021/03/25 00:26:07;;;;;;;70.97;34.83;;;;;;;6.05;84.33;102080.44;5095993;28;20028;-75
2021/03/25 00:28:33;;;;;;;69.13;35.33;;;;;;;6.07;84.50;102072.88;5114033;28;20272;-75
2021/03/25 00:30:58;;;;;;;73.75;37.42;;;;;;;6.06;84.82;102068.56;5113854;28;20068;-75
2021/03/25 00:33:24;;;;;;;84.93;39.70;;;;;;;6.05;84.89;102067.66;5113924;28;21439;-75
2021/03/25 00:35:50;;;;;;;77.72;38.88;;;;;;;6.06;85.12;102071.09;5113908;28;20020;-74
2021/03/25 00:38:17;;;;;;;82.83;38.77;;;;;;;6.02;85.56;102072.59;5113832;28;20034;-74
2021/03/25 00:40:44;;;;;;;86.47;40.87;;;;;;;6.14;86.22;102059.69;5113626;28;20106;-75
2021/03/25 00:43:11;;;;;;;89.00;40.63;;;;;;;6.07;85.50;102063.53;5113582;28;20395;-74
2021/03/25 00:45:39;;;;;;;89.87;41.97;;;;;;;6.07;85.50;102062.66;5113671;28;20030;-74
2021/03/25 00:48:04;;;;;;;91.20;41.53;;;;;;;6.10;85.69;102063.72;5113738;28;20461;-74
2021/03/25 00:50:36;;;;;;;84.75;40.47;;;;;;;6.09;85.60;102069.63;5113437;28;20095;-74
2021/03/25 00:53:02;;;;;;;81.00;40.73;;;;;;;6.01;86.00;102058.06;5113712;28;20023;-77
2021/03/25 00:55:28;;;;;;;88.63;41.80;;;;;;;5.96;86.73;102054.38;5113333;28;20032;-74
2021/03/25 00:57:53;;;;;;;85.40;43.43;;;;;;;5.95;86.39;102061.91;5113671;28;20054;-75
2021/03/25 01:00:25;;;;;;;94.13;42.30;;;;;;;5.95;86.48;102062.81;5095054;28;20839;-74
2021/03/25 01:02:51;;;;;;;91.10;42.80;;;;;;;6.00;86.41;102057.97;5092998;28;20043;-74
2021/03/25 01:05:17;;;;;;;90.70;42.90;;;;;;;6.05;86.16;102059.13;5092868;28;20024;-76
2021/03/25 01:07:42;;;;;;;;;;;;;;;6.02;86.46;102051.31;5093389;28;20282;-74
2021/03/25 01:10:15;;;;;;;84.60;41.10;;;;;;;6.00;86.96;102056.31;5074751;28;19912;-75
2021/03/25 01:12:41;;;;;;;84.47;41.23;;;;;;;5.97;86.70;102045.91;5105237;28;20031;-75
2021/03/25 01:15:07;;;;;;;97.32;45.17;;;;;;;6.01;87.38;102055.53;5094260;28;20027;-75
2021/03/25 01:17:33;;;;;;;88.00;43.43;;;;;;;6.01;87.11;102058.06;5113237;28;20023;-75
2021/03/25 01:19:59;;;;;;;88.78;42.35;;;;;;;5.99;87.42;102051.13;5113220;28;20502;-76
2021/03/25 01:22:24;;;;;;;88.13;43.42;;;;;;;5.90;87.22;102044.66;5112919;28;20027;-75
2021/03/25 01:24:50;;;;;;;85.28;42.53;;;;;;;5.86;87.36;102041.81;5112817;28;20030;-75
2021/03/25 01:27:15;;;;;;;86.20;41.63;;;;;;;5.84;86.93;102043.34;5092238;28;20015;-75
2021/03/25 01:29:40;;;;;;;91.70;44.53;;;;;;;5.80;86.77;102046.50;5074389;28;20032;-75
2021/03/25 01:32:06;;;;;;;89.05;43.35;;;;;;;5.86;87.33;102045.25;5092256;28;20099;-75
2021/03/25 01:34:31;;;;;;;98.85;45.50;;;;;;;5.80;87.28;102041.41;5107975;28;20024;-74
2021/03/25 01:36:57;;;;;;;93.22;44.10;;;;;;;5.72;87.02;102037.50;5112735;28;20026;-75
2021/03/25 01:39:22;;;;;;;89.03;43.67;;;;;;;5.68;87.54;102030.44;5103153;28;20036;-75
2021/03/25 01:41:47;;;;;;;89.53;43.27;;;;;;;5.74;87.69;102041.03;5084083;28;20095;-75
2021/03/25 01:44:34;;;;;;;92.22;44.90;;;;;;;5.67;88.55;102032.13;5099510;28;20074;-75
2021/03/25 01:47:00;;;;;;;101.65;46.00;;;;;;;5.68;89.07;102033.00;5093738;28;20552;-75
2021/03/25 01:49:25;;;;;;;100.53;45.13;;;;;;;5.67;89.16;102028.69;5092360;28;20031;-75
2021/03/25 01:52:21;;;;;;;102.27;46.03;;;;;;;5.67;89.14;102031.25;5091794;28;20274;-74
2021/03/25 01:55:21;;;;;;;97.40;44.67;;;;;;;5.66;89.02;102037.13;5093505;28;20077;-75
2021/03/25 01:57:48;;;;;;;103.03;46.97;;;;;;;5.68;89.66;102030.44;5073741;28;20036;-75
2021/03/25 02:00:25;;;;;;;108.23;49.90;;;;;;;5.85;90.23;102029.81;5094019;28;20084;-75
2021/03/25 02:03:04;;;;;;;116.03;49.05;;;;;;;5.97;90.55;102030.63;5112260;28;20369;-75
2021/03/25 02:06:04;;;;;;;117.23;49.97;;;;;;;6.04;90.69;102025.09;5093858;28;20024;-75
2021/03/25 02:08:47;;;;;;;108.77;49.37;;;;;;;6.05;90.13;102025.97;5112072;28;20035;-75
2021/03/25 02:11:38;;;;;;;105.43;46.47;;;;;;;6.07;90.14;102021.84;5111736;28;20024;-75
2021/03/25 02:14:35;;;;;;;103.13;46.67;;;;;;;6.11;90.37;102022.13;5089899;28;20536;-75
2021/03/25 02:17:27;;;;;;;103.23;48.20;;;;;;;6.14;90.05;102024.84;5091796;28;20038;-75
2021/03/25 02:20:11;;;;;;;96.83;45.10;;;;;;;6.19;90.41;102023.50;5062739;28;20036;-74
2021/03/25 02:23:01;;;;;;;96.43;46.37;;;;;;;6.31;90.43;102019.91;5073159;28;20040;-75
2021/03/25 02:25:33;;;;;;;105.93;46.87;;;;;;;6.32;89.77;102019.09;5073086;28;20032;-75
2021/03/25 02:28:17;;;;;;;105.60;49.07;;;;;;;6.40;90.72;102021.31;5091577;28;20028;-74
2021/03/25 02:30:45;;;;;;;103.03;49.27;;;;;;;6.36;90.14;102018.50;5091214;28;20501;-74
2021/03/25 02:33:19;;;;;;;101.83;45.93;;;;;;;6.36;90.25;102021.03;5091375;28;20028;-74
2021/03/25 02:35:56;;;;;;;105.80;46.83;;;;;;;6.44;89.93;102015.59;5073211;28;20060;-75
2021/03/25 02:38:27;;;;;;;104.37;45.47;;;;;;;6.42;89.90;102021.41;5091330;28;20031;-74
2021/03/25 02:40:56;;;;;;;96.23;47.10;;;;;;;6.42;89.37;102019.72;5072735;28;20024;-75
2021/03/25 02:43:40;;;;;;;100.17;46.33;;;;;;;6.53;89.94;102030.59;5091205;28;20052;-74
2021/03/25 02:46:19;;;;;;;105.03;48.23;;;;;;;6.52;89.73;102023.72;5091220;28;20032;-74
2021/03/25 02:48:48;;;;;;;101.90;47.00;;;;;;;6.50;89.77;102025.28;5091147;28;20557;-75
2021/03/25 02:51:26;;;;;;;109.77;47.93;;;;;;;6.51;90.31;102019.41;5090980;28;20550;-75
2021/03/25 02:53:52;;;;;;;96.37;45.30;;;;;;;6.52;89.84;102026.28;5090010;28;20110;-75
2021/03/25 02:56:40;;;;;;;95.57;44.05;;;;;;;6.55;89.71;102023.91;5090995;28;20062;-74
2021/03/25 02:59:15;;;;;;;111.00;46.23;;;;;;;6.61;89.93;102026.81;5072883;28;20556;-74
2021/03/25 03:01:46;;;;;;;100.63;46.70;;;;;;;6.56;89.70;102030.78;5090657;28;20023;-74
2021/03/25 03:04:17;;;;;;;103.23;45.33;;;;;;;6.57;89.64;102031.66;5090840;28;20020;-74
2021/03/25 03:07:03;;;;;;;88.47;43.40;;;;;;;6.53;89.74;102025.50;5090923;28;20035;-75
2021/03/25 03:09:35;;;;;;;103.43;47.53;;;;;;;6.53;90.02;102030.59;5090780;28;20028;-74
2021/03/25 03:12:04;;;;;;;107.03;48.23;;;;;;;6.50;90.76;102025.28;5090604;28;20019;-75
2021/03/25 03:14:30;;;;;;;90.97;44.13;;;;;;;6.54;90.86;102017.91;5090451;28;20016;-75
2021/03/25 03:17:03;;;;;;;100.53;47.53;;;;;;;6.59;90.74;102018.19;5091989;28;20023;-73
2021/03/25 03:19:39;;;;;;;92.20;46.33;;;;;;;6.57;90.47;102017.22;5090630;28;20027;-75
2021/03/25 03:22:08;;;;;;;94.00;43.92;;;;;;;6.63;90.27;102009.03;5072380;28;20412;-75
2021/03/25 03:24:35;;;;;;;106.63;46.90;;;;;;;6.68;90.22;102007.63;5090634;28;20016;-74
2021/03/25 03:27:13;;;;;;;101.90;45.27;;;;;;;6.58;90.08;102003.66;5075342;28;20069;-74
2021/03/25 03:29:41;;;;;;;100.77;45.73;;;;;;;6.63;90.87;102020.13;5095006;28;20016;-74
2021/03/25 03:32:17;;;;;;;106.10;47.40;;;;;;;6.54;91.26;102017.03;5094533;28;20027;-74
2021/03/25 03:34:45;;;;;;;106.20;46.15;;;;;;;6.60;91.31;102011.41;5094812;28;20050;-74
2021/03/25 03:37:23;;;;;;;105.67;47.17;;;;;;;6.57;90.91;102011.22;5076564;28;20028;-75
2021/03/25 03:39:54;;;;;;;103.30;46.57;;;;;;;6.57;90.90;102014.66;5094692;28;20043;-75
2021/03/25 03:42:21;;;;;;;108.70;48.23;;;;;;;6.63;91.04;102009.03;5094209;28;20476;-74
2021/03/25 03:44:49;;;;;;;100.33;45.27;;;;;;;6.59;91.32;102010.53;5094352;28;20511;-74
2021/03/25 03:47:18;;;;;;;91.37;44.43;;;;;;;6.60;91.09;102002.06;5094521;28;20055;-74
2021/03/25 03:50:13;;;;;;;105.30;48.50;;;;;;;6.68;91.54;101994.84;5094649;28;20078;-74
2021/03/25 03:52:41;;;;;;;101.80;47.60;;;;;;;6.63;91.57;102006.47;5094082;28;20020;-74
2021/03/25 03:55:10;;;;;;;94.90;44.97;;;;;;;6.60;91.11;102011.41;5094416;28;20484;-73
2021/03/25 03:57:47;;;;;;;94.63;41.60;;;;;;;6.61;91.04;102014.03;5094219;28;20024;-75
2021/03/25 04:00:34;;;;;;;95.05;42.70;;;;;;;6.70;91.14;102009.47;5076246;28;20028;-73
2021/03/25 04:03:11;;;;;;;104.85;45.55;;;;;;;6.63;91.27;102012.47;5094267;28;20016;-75
2021/03/25 04:05:40;;;;;;;99.90;45.23;;;;;;;6.66;91.19;102015.19;5094137;28;20059;-75
2021/03/25 04:08:31;;;;;;;100.37;45.03;;;;;;;6.75;91.58;102002.06;5094206;28;20027;-75
2021/03/25 04:11:11;;;;;;;109.83;48.50;;;;;;;6.86;91.71;101985.69;5093900;28;20102;-74
2021/03/25 04:13:42;;;;;;;106.00;48.33;;;;;;;6.73;91.20;101999.44;5075409;28;20050;-74
2021/03/25 04:16:07;;;;;;;93.57;44.37;;;;;;;6.82;91.33;101999.94;5094081;28;20073;-74
2021/03/25 04:18:47;;;;;;;112.28;48.05;;;;;;;6.74;91.10;101997.75;5093937;28;20435;-74
2021/03/25 04:21:24;;;;;;;100.63;46.10;;;;;;;6.73;91.20;101989.22;5075526;28;20375;-75
2021/03/25 04:23:51;;;;;;;107.90;47.60;;;;;;;6.71;91.68;101993.34;5094003;28;20019;-74
2021/03/25 04:26:37;;;;;;;97.37;45.77;;;;;;;6.70;91.46;101996.69;5075513;28;20492;-75
2021/03/25 04:29:08;;;;;;;112.57;47.88;;;;;;;6.65;91.23;101987.91;5092878;28;20042;-73
2021/03/25 04:31:34;;;;;;;105.70;47.37;;;;;;;6.70;91.50;101988.16;5093403;28;20023;-75
2021/03/25 04:34:03;;;;;;;108.25;47.13;;;;;;;6.68;91.03;101989.75;5075367;28;20020;-75
2021/03/25 04:36:39;;;;;;;98.77;45.53;;;;;;;6.66;91.10;101984.56;5075234;28;20032;-73
2021/03/25 04:39:07;;;;;;;96.57;47.10;;;;;;;6.72;91.23;101987.44;5093577;28;20039;-74
2021/03/25 04:41:35;;;;;;;104.43;44.67;;;;;;;6.60;91.08;101986.75;5093151;28;20092;-74
2021/03/25 04:44:05;;;;;;;88.47;43.60;;;;;;;6.55;91.07;101993.28;5075145;28;20374;-75
2021/03/25 04:46:52;;;;;;;103.83;46.93;;;;;;;6.55;91.23;101998.38;5093333;28;20034;-75
2021/03/25 04:49:29;;;;;;;91.80;44.60;;;;;;;6.49;91.13;101998.00;5093329;28;20032;-75
2021/03/25 04:52:00;;;;;;;98.07;44.65;;;;;;;6.62;91.82;101995.38;5093032;28;20095;-74
2021/03/25 04:54:29;;;;;;;97.93;44.80;;;;;;;6.50;91.50;101990.47;5093324;28;20658;-74
2021/03/25 04:57:00;;;;;;;92.67;44.47;;;;;;;6.46;91.61;101982.50;5093153;28;20035;-75
2021/03/25 04:59:25;;;;;;;93.73;44.07;;;;;;;6.49;91.55;101975.03;5093284;28;20039;-75
2021/03/25 05:01:51;;;;;;;112.03;46.92;;;;;;;6.47;92.19;101963.84;5092858;28;20065;-74
2021/03/25 05:04:16;;;;;;;101.88;46.70;;;;;;;6.42;93.01;101958.47;5092976;28;20020;-74
2021/03/25 05:06:57;;;;;;;93.67;44.90;;;;;;;6.50;92.75;101958.91;5093041;28;20508;-73
2021/03/25 05:09:24;;;;;;;94.40;43.33;;;;;;;6.42;92.02;101985.66;5112620;28;20032;-75
2021/03/25 05:11:50;;;;;;;90.93;42.27;;;;;;;6.37;91.78;101977.75;5113032;28;20030;-74
2021/03/25 05:14:22;;;;;;;92.68;40.92;;;;;;;6.31;91.22;101973.97;5113009;28;20031;-74
2021/03/25 05:16:53;;;;;;;89.33;41.33;;;;;;;6.29;91.34;101984.09;5113183;28;20076;-74
2021/03/25 05:19:49;;;;;;;85.97;41.77;;;;;;;6.33;91.13;101980.03;5094798;28;20140;-74
2021/03/25 05:22:36;;;;;;;93.23;40.90;;;;;;;6.31;91.35;101979.94;5112835;28;20027;-74
2021/03/25 05:25:25;;;;;;;86.82;42.28;;;;;;;6.41;91.55;101978.81;5112941;28;20400;-74
2021/03/25 05:27:58;;;;;;;80.20;39.63;;;;;;;6.41;91.93;101986.47;5112964;28;20034;-74
2021/03/25 05:30:27;;;;;;;89.00;40.70;;;;;;;6.40;92.41;101987.25;5112782;28;20043;-74
2021/03/25 05:33:01;;;;;;;85.23;41.00;;;;;;;6.38;91.62;101992.28;5112864;28;20180;-75
2021/03/25 05:35:34;;;;;;;83.10;40.07;;;;;;;6.35;91.61;101988.66;5094491;28;20020;-74
2021/03/25 05:38:00;;;;;;;90.20;39.43;;;;;;;6.29;91.25;101983.19;5112720;28;20023;-74
2021/03/25 05:40:32;;;;;;;88.97;41.43;;;;;;;6.25;91.56;101987.25;5112599;28;20396;-74
2021/03/25 05:43:29;;;;;;;93.20;41.23;;;;;;;6.21;91.48;101987.84;5112834;28;20026;-75
2021/03/25 05:46:28;;;;;;;89.53;40.63;;;;;;;6.12;91.70;101977.97;5112638;28;20027;-73
2021/03/25 05:49:24;;;;;;;83.43;40.70;;;;;;;6.09;92.01;101975.22;5111687;28;20023;-75
2021/03/25 05:51:55;;;;;;;80.00;38.97;;;;;;;6.20;92.26;101991.19;5094001;28;20467;-75
2021/03/25 05:54:51;;;;;;;83.13;41.40;;;;;;;6.20;92.23;101991.19;5112468;28;20385;-74
2021/03/25 05:57:26;;;;;;;86.43;41.90;;;;;;;6.13;91.90;101989.94;5088123;28;20039;-75
2021/03/25 06:00:02;;;;;;;84.57;41.87;;;;;;;6.14;92.27;101981.47;5092120;28;20031;-75
2021/03/25 06:02:53;;;;;;;85.32;42.05;;;;;;;6.17;92.25;101979.09;5091733;28;20047;-74
2021/03/25 06:05:18;;;;;;;74.67;37.80;;;;;;;6.22;92.36;101977.75;5091570;28;20504;-74
2021/03/25 06:08:09;;;;;;;79.13;38.97;;;;;;;6.30;91.71;101980.75;5091933;28;20024;-75
2021/03/25 06:10:47;;;;;;;78.50;39.73;;;;;;;6.35;91.72;101984.44;5073247;28;20032;-74
2021/03/25 06:13:30;;;;;;;80.33;38.93;;;;;;;6.44;91.47;101986.63;5091157;28;20046;-72
2021/03/25 06:16:08;;;;;;;82.57;39.73;;;;;;;6.67;91.26;101986.31;5091657;28;20389;-74
2021/03/25 06:18:55;;;;;;;74.70;37.00;;;;;;;7.07;90.07;101991.13;5073615;28;20028;-74
2021/03/25 06:21:33;;;;;;;71.50;36.40;;;;;;;7.38;89.11;101993.69;5091187;28;20024;-74
2021/03/25 06:24:33;;;;;;;75.13;37.73;;;;;;;7.76;87.59;101993.22;5091438;28;20024;-74
2021/03/25 06:27:17;;;;;;;74.27;36.90;;;;;;;7.85;86.57;102000.53;5091569;28;20039;-74
2021/03/25 06:29:57;;;;;;;69.93;36.70;;;;;;;8.03;86.18;101994.69;5090080;28;20107;-74
2021/03/25 06:32:31;;;;;;;72.30;38.43;;;;;;;8.20;86.42;101997.25;5072973;28;20024;-74
2021/03/25 06:35:09;;;;;;;65.97;34.80;;;;;;;8.51;85.19;101998.03;5073109;28;20052;-74
2021/03/25 06:37:38;;;;;;;73.43;35.10;;;;;;;8.55;84.07;101997.38;5091275;28;20032;-74
2021/03/25 06:40:13;;;;;;;65.47;33.93;;;;;;;8.56;84.46;102006.84;5091199;28;20122;-75
2021/03/25 06:42:55;;;;;;;71.20;37.10;;;;;;;8.55;83.95;102005.06;5072749;28;20028;-75
2021/03/25 06:45:33;;;;;;;65.67;35.40;;;;;;;8.43;84.54;102007.00;5091032;28;20024;-74
2021/03/25 06:48:10;;;;;;;69.80;36.40;;;;;;;8.31;85.45;102008.91;5091087;28;20027;-73
2021/03/25 06:50:42;;;;;;;67.43;35.30;;;;;;;8.31;85.26;102003.78;5090766;28;20024;-73
2021/03/25 06:53:22;;;;;;;68.93;35.97;;;;;;;8.29;85.65;102000.28;5091094;28;20121;-73
2021/03/25 06:55:49;;;;;;;69.80;37.13;;;;;;;8.27;85.28;102004.44;5090216;28;20034;-73
2021/03/25 06:58:23;;;;;;;67.73;36.60;;;;;;;8.00;86.29;102009.00;5090002;28;20031;-73
2021/03/25 07:00:56;;;;;;;69.27;36.73;;;;;;;7.98;86.58;102006.34;5089877;28;20089;-73
2021/03/25 07:03:23;;;;;;;66.00;37.67;;;;;;;8.02;87.14;102013.38;5089764;28;20032;-73
2021/03/25 07:05:49;;;;;;;75.40;37.60;;;;;;;8.05;87.36;102013.53;5090022;28;20035;-73
2021/03/25 07:08:14;;;;;;;73.03;38.00;;;;;;;8.07;87.29;102016.19;5090065;28;20063;-73
2021/03/25 07:10:40;;;;;;;67.13;37.47;;;;;;;8.03;86.74;102012.59;5089550;28;20350;-73
2021/03/25 07:13:07;;;;;;;75.13;37.88;;;;;;;7.91;87.79;102004.28;5089675;28;20074;-73
2021/03/25 07:15:37;;;;;;;80.20;38.57;;;;;;;7.98;87.57;102005.47;5089915;28;20122;-73
2021/03/25 07:18:19;;;;;;;71.67;36.13;;;;;;;8.07;87.44;102013.63;5089848;28;20488;-73
2021/03/25 07:20:45;;;;;;;70.03;38.17;;;;;;;8.17;87.37;102009.88;5089588;28;20671;-73
2021/03/25 07:23:13;;;;;;;72.57;36.88;;;;;;;8.22;87.03;102017.00;5089628;28;20031;-73
2021/03/25 07:25:42;;;;;;;69.30;36.37;;;;;;;8.36;86.93;102025.41;5071334;28;20055;-73
2021/03/25 07:28:15;;;;;;;69.27;36.93;;;;;;;8.45;86.78;102025.00;5089827;28;20440;-71
2021/03/25 07:30:45;;;;;;;68.77;35.80;;;;;;;8.58;86.30;102027.41;5071259;28;20024;-73
2021/03/25 07:33:21;;;;;;;68.97;36.23;;;;;;;8.67;86.35;102017.59;5089801;28;20020;-74
2021/03/25 07:35:50;;;;;;;69.18;36.78;;;;;;;8.67;85.94;102023.59;5089849;28;20046;-73
2021/03/25 07:38:29;;;;;;;67.50;35.60;;;;;;;8.76;85.54;102018.06;5089745;28;20047;-73
2021/03/25 07:41:14;;;;;;;61.93;35.93;;;;;;;8.77;85.66;102018.94;5089215;28;20042;-73
2021/03/25 07:43:52;;;;;;;68.13;35.70;;;;;;;8.73;86.21;102033.28;5089552;28;20500;-73
2021/03/25 07:46:28;;;;;;;72.03;36.10;;;;;;;8.76;86.16;102030.88;5089489;28;20024;-73
2021/03/25 07:49:01;;;;;;;68.10;34.83;;;;;;;8.77;86.25;102042.88;5089748;28;20473;-73
2021/03/25 07:51:27;;;;;;;69.20;34.47;;;;;;;8.58;86.14;102040.19;5089223;28;20115;-73
2021/03/25 07:54:10;;;;;;;58.95;34.55;;;;;;;8.71;86.96;102048.56;5089534;28;20095;-71
2021/03/25 07:56:35;;;;;;;65.67;36.17;;;;;;;8.84;86.50;102049.22;5089026;28;20020;-73
2021/03/25 07:59:01;;;;;;;63.25;35.20;;;;;;;8.87;85.97;102042.56;5071218;28;20035;-72
2021/03/25 08:01:26;;;;;;;66.28;36.33;;;;;;;8.88;86.34;102041.75;5089288;28;20030;-73
2021/03/25 08:03:57;;;;;;;60.65;34.65;;;;;;;9.00;85.55;102044.03;5089212;28;20024;-74
2021/03/25 08:06:33;;;;;;;63.57;33.60;;;;;;;9.11;85.52;102045.44;5089108;28;20024;-73
2021/03/25 08:09:02;;;;;;;63.97;34.93;;;;;;;9.09;85.33;102036.78;5070776;28;20023;-73
2021/03/25 08:11:28;;;;;;;65.13;34.03;;;;;;;9.20;85.38;102043.31;5088762;28;20024;-73
2021/03/25 08:14:01;;;;;;;63.40;33.03;;;;;;;9.27;84.67;102029.97;5092553;28;20432;-73
2021/03/25 08:16:30;;;;;;;63.17;33.90;;;;;;;9.52;85.00;102036.28;5093052;28;20042;-73
2021/03/25 08:19:18;;;;;;;64.47;33.77;;;;;;;10.45;83.95;102037.97;5093060;28;20119;-73
2021/03/25 08:22:05;;;;;;;52.53;31.50;;;;;;;11.19;80.03;102035.94;5092757;28;20032;-74
2021/03/25 08:24:56;;;;;;;55.63;29.95;;;;;;;11.47;77.31;102037.03;5092727;28;20492;-73
2021/03/25 08:27:58;;;;;;;46.67;28.08;;;;;;;11.45;77.92;102034.41;5092981;28;20032;-73
2021/03/25 08:30:45;;;;;;;48.10;27.10;;;;;;;11.28;78.48;102043.16;5092568;28;20027;-74
2021/03/25 08:33:29;;;;;;;42.03;26.50;;;;;;;10.87;79.75;102060.34;5093972;28;20385;-76
2021/03/25 08:36:09;;;;;;;46.72;28.10;;;;;;;10.73;81.52;102060.56;5107919;28;20031;-75
2021/03/25 08:38:58;;;;;;;50.72;28.10;;;;;;;10.43;82.78;102050.75;5113951;28;20058;-74
2021/03/25 08:41:30;;;;;;;44.33;25.02;;;;;;;10.21;84.24;102051.47;5095450;28;20030;-74
2021/03/25 08:44:08;;;;;;;42.92;24.65;;;;;;;10.09;84.38;102053.47;5113181;28;20024;-74
2021/03/25 08:46:37;;;;;;;36.10;22.58;;;;;;;10.23;84.93;102056.69;5095047;28;20043;-74
2021/03/25 08:49:26;;;;;;;38.58;23.38;;;;;;;10.24;84.43;102048.16;5113593;28;20396;-75
2021/03/25 08:51:54;;;;;;;40.67;23.30;;;;;;;10.13;85.97;102057.94;5095182;28;20156;-75
2021/03/25 08:54:36;;;;;;;35.30;20.98;;;;;;;10.27;84.53;102058.56;5095409;28;20023;-75
2021/03/25 08:57:20;;;;;;;35.47;21.50;;;;;;;10.21;85.10;102059.19;5095306;28;20480;-74
2021/03/25 09:00:04;;;;;;;33.55;20.20;;;;;;;9.99;84.72;102059.88;5095409;28;20047;-74
2021/03/25 09:02:38;;;;;;;39.72;21.08;;;;;;;10.02;85.49;102059.13;5094935;28;20031;-75
2021/03/25 09:05:24;;;;;;;37.22;22.77;;;;;;;10.09;86.60;102047.47;5095133;28;20055;-74
2021/03/25 09:07:52;;;;;;;33.63;20.83;;;;;;;10.13;86.15;102054.50;5095099;28;20485;-74
2021/03/25 09:10:38;;;;;;;36.87;22.70;;;;;;;10.16;85.77;102054.63;5095279;28;20028;-74
2021/03/25 09:13:04;;;;;;;36.15;21.25;;;;;;;10.16;86.04;102044.34;5095019;28;20035;-73
2021/03/25 09:15:29;;;;;;;33.03;20.30;;;;;;;10.01;86.19;102056.50;5093324;28;20027;-74
2021/03/25 09:18:06;;;;;;;35.27;20.43;;;;;;;9.87;86.17;102055.88;5114312;28;20019;-74
2021/03/25 09:20:36;;;;;;;31.90;19.37;;;;;;;9.94;86.30;102057.91;5094601;28;20266;-74
2021/03/25 09:23:33;;;;;;;31.57;18.13;;;;;;;9.78;86.35;102061.47;5094399;28;20020;-75
2021/03/25 09:26:22;;;;;;;33.03;19.63;;;;;;;9.77;87.28;102054.59;5112901;28;20027;-75
2021/03/25 09:28:53;;;;;;;32.20;19.17;;;;;;;9.79;86.88;102063.22;5080306;28;20055;-75
2021/03/25 09:31:20;;;;;;;32.38;20.15;;;;;;;9.83;87.70;102052.28;5074241;28;20028;-74
2021/03/25 09:34:00;;;;;;;35.77;20.50;;;;;;;9.91;87.40;102061.22;5074441;28;20020;-75
2021/03/25 09:36:31;;;;;;;37.60;22.63;;;;;;;9.72;87.75;102058.59;5074353;28;20020;-75
2021/03/25 09:38:57;;;;;;;37.90;22.33;;;;;;;9.75;87.54;102056.16;5074291;28;20081;-74
2021/03/25 09:41:25;;;;;;;40.03;22.60;;;;;;;9.61;87.61;102064.94;5092136;28;20024;-75
2021/03/25 09:44:09;;;;;;;37.40;23.03;;;;;;;9.53;87.75;102064.56;5074119;28;20114;-75
2021/03/25 09:46:46;;;;;;;49.27;25.60;;;;;;;9.41;88.45;102063.09;5073978;28;20117;-75
2021/03/25 09:49:15;;;;;;;52.40;28.80;;;;;;;9.38;88.87;102061.25;5056648;28;20528;-74
2021/03/25 09:51:42;;;;;;;59.17;28.33;;;;;;;9.35;88.99;102059.44;5073738;28;20040;-74
2021/03/25 09:54:26;;;;;;;55.30;28.77;;;;;;;9.41;88.38;102053.72;5092075;28;20078;-75
2021/03/25 09:57:29;;;;;;;62.10;30.17;;;;;;;9.50;88.05;102053.28;5073760;28;20028;-74
2021/03/25 09:59:59;;;;;;;60.93;30.53;;;;;;;9.44;88.13;102060.69;5094197;28;20493;-75
2021/03/25 10:02:51;;;;;;;58.77;30.43;;;;;;;9.54;88.13;102058.63;5093735;28;20084;-75
2021/03/25 10:05:19;;;;;;;67.00;32.33;;;;;;;9.35;88.25;102053.41;5107598;28;20124;-74
2021/03/25 10:07:47;;;;;;;66.40;32.43;;;;;;;9.50;88.13;102055.84;5112266;28;20057;-75
2021/03/25 10:10:49;;;;;;;67.40;32.90;;;;;;;9.38;88.28;102050.13;5093928;28;20027;-74
2021/03/25 10:13:35;;;;;;;67.10;33.47;;;;;;;9.45;88.12;102053.06;5093368;28;20047;-73
2021/03/25 10:16:07;;;;;;;66.43;32.90;;;;;;;9.36;87.39;102058.63;5072185;28;20102;-75
2021/03/25 10:18:32;;;;;;;85.43;36.27;;;;;;;9.40;87.99;102056.19;5091820;28;20027;-73
2021/03/25 10:21:08;;;;;;;77.63;35.63;;;;;;;9.44;87.69;102053.00;5091459;28;20028;-75
2021/03/25 10:23:36;;;;;;;71.40;34.63;;;;;;;9.40;88.12;102057.06;5073314;28;20118;-75
2021/03/25 10:26:01;;;;;;;76.77;35.47;;;;;;;9.53;88.10;102053.44;5073612;28;20072;-74
2021/03/25 10:28:29;;;;;;;80.23;34.70;;;;;;;9.64;87.63;102057.38;5073492;28;20526;-74
2021/03/25 10:31:02;;;;;;;75.03;34.57;;;;;;;9.78;87.05;102060.59;5073160;28;20024;-75
2021/03/25 10:33:29;;;;;;;72.30;34.27;;;;;;;9.75;86.88;102060.41;5091292;28;20032;-74
2021/03/25 10:36:09;;;;;;;75.30;33.47;;;;;;;9.71;86.91;102068.78;5072868;28;20019;-74
2021/03/25 10:38:43;;;;;;;74.47;34.57;;;;;;;9.84;86.63;102064.31;5073301;28;20027;-75
2021/03/25 10:41:17;;;;;;;71.40;34.60;;;;;;;9.91;86.10;102068.91;5072877;28;20482;-74
2021/03/25 10:43:42;;;;;;;67.77;33.67;;;;;;;9.86;85.94;102065.25;5072921;28;20401;-75
2021/03/25 10:46:09;;;;;;;65.77;32.73;;;;;;;9.95;86.08;102065.66;5073091;28;20021;-74
2021/03/25 10:48:42;;;;;;;60.90;30.93;;;;;;;9.91;85.59;102061.22;5072974;28;20779;-73
2021/03/25 10:51:16;;;;;;;66.63;30.57;;;;;;;9.93;85.83;102062.16;5072798;28;20057;-74
2021/03/25 10:53:50;;;;;;;64.87;28.87;;;;;;;10.15;84.46;102058.88;5073013;28;20024;-75
2021/03/25 10:56:38;;;;;;;55.90;28.47;;;;;;;10.47;83.83;102055.19;5073039;28;20603;-74
2021/03/25 10:59:09;;;;;;;54.15;27.90;;;;;;;10.76;82.97;102058.16;5072902;28;20028;-74
2021/03/25 11:01:36;;;;;;;53.67;28.70;;;;;;;10.75;81.77;102056.38;5072583;28;20035;-74
2021/03/25 11:04:19;;;;;;;49.33;24.63;;;;;;;10.58;81.12;102056.53;5090871;28;20029;-74
2021/03/25 11:06:45;;;;;;;44.90;25.52;;;;;;;10.65;81.25;102057.66;5072849;28;20023;-75
2021/03/25 11:09:17;;;;;;;46.42;24.13;;;;;;;10.68;80.49;102068.06;5072743;28;20385;-74
2021/03/25 11:11:44;;;;;;;52.20;24.05;;;;;;;10.51;80.60;102058.78;5072594;28;20024;-75
2021/03/25 11:14:29;;;;;;;37.60;20.30;;;;;;;10.36;79.79;102056.41;5090270;28;20028;-74
2021/03/25 11:17:01;;;;;;;36.73;20.83;;;;;;;10.25;80.63;102055.94;5090850;28;20032;-74
2021/03/25 11:19:27;;;;;;;38.17;20.92;;;;;;;10.18;81.13;102060.72;5090672;28;20441;-75
2021/03/25 11:21:56;;;;;;;35.72;20.27;;;;;;;10.32;81.02;102051.06;5090612;28;20058;-73
2021/03/25 11:24:24;;;;;;;46.03;23.48;;;;;;;11.67;81.06;102042.94;5089582;28;20438;-74
2021/03/25 11:27:03;;;;;;;35.25;18.23;;;;;;;13.84;72.63;102036.66;5072505;28;20028;-75
2021/03/25 11:29:33;;;;;;;32.45;18.67;;;;;;;15.56;65.69;102027.34;5072602;28;20078;-75
2021/03/25 11:32:15;;;;;;;28.02;16.80;;;;;;;16.41;60.12;102029.16;5072199;28;20026;-74
2021/03/25 11:34:42;;;;;;;27.23;14.43;;;;;;;16.30;58.04;102040.19;5072638;28;20028;-75
2021/03/25 11:37:33;;;;;;;26.52;14.93;;;;;;;17.17;58.08;102034.81;5072650;28;20020;-75
2021/03/25 11:40:14;;;;;;;23.13;15.07;;;;;;;17.81;55.46;102038.34;5072551;28;20028;-75
2021/03/25 11:42:42;;;;;;;24.63;15.23;;;;;;;17.95;55.02;102042.03;5072188;28;20030;-75
2021/03/25 11:45:41;;;;;;;21.63;14.00;;;;;;;17.46;53.73;102036.97;5072178;28;20020;-75
2021/03/25 11:48:19;;;;;;;25.42;13.02;;;;;;;16.24;54.27;102037.44;5093467;28;20043;-74